createdAt,value
2023-05-04T00:00:32.846Z,94157.56
2023-05-04T00:03:37.082Z,94158.06
2023-05-04T00:06:40.999Z,94158.16
2023-05-04T00:09:44.912Z,94158.88
2023-05-04T00:12:48.793Z,94155.06
2023-05-04T00:15:52.741Z,94154.75
2023-05-04T00:18:56.822Z,94134.41
2023-05-04T00:22:00.862Z,94156.81
2023-05-04T00:25:04.669Z,94165.63
2023-05-04T00:28:08.072Z,94155.59
2023-05-04T00:31:11.537Z,94155.91
2023-05-04T00:34:16.427Z,94158.69
2023-05-04T00:37:19.735Z,94158.25
2023-05-04T00:40:23.873Z,94144.25
2023-05-04T00:43:27.635Z,94146.47
2023-05-04T00:46:33.775Z,94143.88
2023-05-04T00:49:37.632Z,94141.22
2023-05-04T00:52:44.800Z,94138.25
2023-05-04T00:55:48.634Z,94137.38
2023-05-04T00:58:56.256Z,94137.84
2023-05-04T01:01:59.203Z,94131.22
2023-05-04T01:05:04.013Z,94139.00
2023-05-04T01:08:33.113Z,94130.84
2023-05-04T01:11:55.251Z,94129.91
2023-05-04T01:14:59.735Z,94125.31
2023-05-04T01:18:04.711Z,94122.25
2023-05-04T01:21:10.381Z,94126.03
2023-05-04T01:24:13.356Z,94128.47
2023-05-04T01:27:48.084Z,94126.41
2023-05-04T01:30:56.632Z,94128.66
2023-05-04T01:34:01.043Z,94130.44
2023-05-04T01:37:04.677Z,94126.16
2023-05-04T01:40:10.080Z,94121.38
2023-05-04T01:43:13.903Z,94130.06
2023-05-04T01:46:17.319Z,94129.94
2023-05-04T01:49:20.929Z,94127.13
2023-05-04T01:52:26.163Z,94116.72
2023-05-04T01:55:29.841Z,94117.75
2023-05-04T01:58:33.610Z,94120.84
2023-05-04T02:01:37.239Z,94126.75
2023-05-04T02:04:41.993Z,94116.13
2023-05-04T02:07:45.039Z,94120.28
2023-05-04T02:10:49.030Z,94116.41
2023-05-04T02:13:52.166Z,94111.00
2023-05-04T02:16:55.266Z,94111.38
2023-05-04T02:19:58.779Z,94101.59
2023-05-04T02:23:02.275Z,94102.47
2023-05-04T02:26:06.085Z,94094.66
2023-05-04T02:29:09.505Z,94098.91
2023-05-04T02:32:12.672Z,94086.94
2023-05-04T02:35:16.830Z,94091.66
2023-05-04T02:38:20.506Z,94093.28
2023-05-04T02:41:24.477Z,94090.88
2023-05-04T02:44:27.993Z,94086.84
2023-05-04T02:47:32.020Z,94080.84
2023-05-04T02:50:38.216Z,94080.84
2023-05-04T02:53:42.056Z,94072.75
2023-05-04T02:56:45.940Z,94068.69
2023-05-04T02:59:50.249Z,94075.41
2023-05-04T03:02:53.809Z,94061.00
2023-05-04T03:05:58.308Z,94056.78
2023-05-04T03:09:01.689Z,94042.97
2023-05-04T03:12:06.897Z,94038.16
2023-05-04T03:15:10.748Z,94039.06
2023-05-04T03:18:15.176Z,94025.34
2023-05-04T03:21:18.451Z,94036.63
2023-05-04T03:24:23.113Z,94026.63
2023-05-04T03:27:26.062Z,94024.41
2023-05-04T03:30:30.221Z,94018.75
2023-05-04T03:33:37.150Z,94013.47
2023-05-04T03:36:40.818Z,94008.84
2023-05-04T03:39:44.563Z,94013.94
2023-05-04T03:42:48.479Z,94004.84
2023-05-04T03:45:52.883Z,93998.69
2023-05-04T03:48:56.990Z,93993.56
2023-05-04T03:52:00.530Z,93974.66
2023-05-04T03:55:04.135Z,93968.47
2023-05-04T03:58:07.543Z,93980.59
2023-05-04T04:01:11.811Z,93973.56
2023-05-04T04:04:15.611Z,93967.38
2023-05-04T04:07:19.086Z,93961.59
2023-05-04T04:10:22.428Z,93962.81
2023-05-04T04:13:25.891Z,93952.34
2023-05-04T04:16:28.893Z,93943.91
2023-05-04T04:19:32.288Z,93943.25
2023-05-04T04:22:37.202Z,93945.06
2023-05-04T04:25:40.188Z,93942.16
2023-05-04T04:28:45.812Z,93939.50
2023-05-04T04:31:48.811Z,93932.72
2023-05-04T04:34:52.174Z,93926.25
2023-05-04T04:37:56.013Z,93925.88
2023-05-04T04:40:59.361Z,93921.75
2023-05-04T04:44:03.083Z,93934.41
2023-05-04T04:47:07.544Z,93928.06
2023-05-04T04:50:11.540Z,93919.13
2023-05-04T04:53:15.885Z,93906.13
2023-05-04T04:56:19.338Z,93915.06
2023-05-04T04:59:25.464Z,93903.06
2023-05-04T05:02:28.983Z,93896.16
2023-05-04T05:05:32.603Z,93886.28
2023-05-04T05:08:36.416Z,93890.69
2023-05-04T05:11:40.490Z,93887.66
2023-05-04T05:14:44.324Z,93896.19
2023-05-04T05:17:48.724Z,93886.91
2023-05-04T05:20:52.448Z,93877.94
2023-05-04T05:23:56.346Z,93886.91
2023-05-04T05:27:00.944Z,93877.94
2023-05-04T05:30:06.309Z,93890.66
2023-05-04T05:33:09.685Z,93869.25
2023-05-04T05:36:12.762Z,93863.16
2023-05-04T05:39:16.381Z,93865.88
2023-05-04T05:42:20.805Z,93866.00
2023-05-04T05:45:23.824Z,93861.56
2023-05-04T05:48:27.898Z,93866.19
2023-05-04T05:51:31.648Z,93858.56
2023-05-04T05:54:35.898Z,93859.50
2023-05-04T05:57:38.828Z,93857.03
2023-05-04T06:00:44.021Z,93863.06
2023-05-04T06:03:47.590Z,93867.03
2023-05-04T06:06:51.169Z,93864.22
2023-05-04T06:09:54.952Z,93849.88
2023-05-04T06:12:58.365Z,93845.75
2023-05-04T06:16:02.152Z,93846.00
2023-05-04T06:19:06.546Z,93864.50
2023-05-04T06:22:09.553Z,93860.53
2023-05-04T06:25:12.966Z,93844.09
2023-05-04T06:28:16.725Z,93846.22
2023-05-04T06:31:20.150Z,93839.97
2023-05-04T06:34:23.442Z,93842.91
2023-05-04T06:37:27.737Z,93845.22
2023-05-04T06:40:31.061Z,93843.25
2023-05-04T06:43:35.114Z,93837.59
2023-05-04T06:46:38.652Z,93846.47
2023-05-04T06:49:41.806Z,93825.56
2023-05-04T06:52:46.937Z,93816.06
2023-05-04T06:55:50.971Z,93824.41
2023-05-04T06:58:54.518Z,93818.03
2023-05-04T07:01:58.406Z,93812.72
2023-05-04T07:05:02.989Z,93813.06
2023-05-04T07:08:07.125Z,93820.72
2023-05-04T07:11:11.192Z,93804.66
2023-05-04T07:14:14.514Z,93801.34
2023-05-04T07:17:17.586Z,93796.72
2023-05-04T07:20:25.089Z,93797.94
2023-05-04T07:23:29.656Z,93778.19
2023-05-04T07:26:33.366Z,93788.22
2023-05-04T07:29:37.289Z,93778.03
2023-05-04T07:32:41.362Z,93778.91
2023-05-04T07:35:45.058Z,93773.34
2023-05-04T07:38:49.100Z,93771.16
2023-05-04T07:41:55.732Z,93773.00
2023-05-04T07:44:59.636Z,93759.03
2023-05-04T07:48:02.656Z,93777.78
2023-05-04T07:51:06.845Z,93764.09
2023-05-04T07:54:10.769Z,93768.78
2023-05-04T07:57:14.707Z,93770.03
2023-05-04T08:00:19.076Z,93770.94
2023-05-04T08:03:23.129Z,93763.78
2023-05-04T08:06:27.445Z,93756.31
2023-05-04T08:09:30.976Z,93756.16
2023-05-04T08:12:34.018Z,93750.44
2023-05-04T08:15:38.146Z,93756.34
2023-05-04T08:18:41.841Z,93760.75
2023-05-04T08:21:45.884Z,93758.53
2023-05-04T08:24:49.601Z,93761.72
2023-05-04T08:27:54.509Z,93750.16
2023-05-04T08:30:58.594Z,93743.56
2023-05-04T08:34:02.187Z,93751.72
2023-05-04T08:37:06.704Z,93753.72
2023-05-04T08:40:10.590Z,93752.88
2023-05-04T08:43:15.017Z,93752.06
2023-05-04T08:46:18.425Z,93745.69
2023-05-04T08:49:23.750Z,93748.13
2023-05-04T08:52:28.209Z,93749.44
2023-05-04T08:55:34.738Z,93753.41
2023-05-04T08:58:39.543Z,93755.00
2023-05-04T09:01:43.855Z,93756.06
2023-05-04T09:04:48.074Z,93750.56
2023-05-04T09:07:53.460Z,93753.09
2023-05-04T09:10:56.622Z,93745.50
2023-05-04T09:13:59.978Z,93745.28
2023-05-04T09:17:04.324Z,93762.34
2023-05-04T09:20:08.486Z,93759.50
2023-05-04T09:23:12.907Z,93764.28
2023-05-04T09:26:16.693Z,93761.25
2023-05-04T09:29:20.517Z,93758.59
2023-05-04T09:32:25.099Z,93760.19
2023-05-04T09:35:33.737Z,93752.75
2023-05-04T09:38:37.693Z,93733.59
2023-05-04T09:41:41.250Z,93751.88
2023-05-04T09:44:44.569Z,93746.03
2023-05-04T09:47:48.123Z,93748.69
2023-05-04T09:50:54.972Z,93746.97
2023-05-04T09:54:02.610Z,93744.38
2023-05-04T09:57:14.064Z,93740.41
2023-05-04T10:00:18.748Z,93747.22
2023-05-04T10:03:22.954Z,93749.75
2023-05-04T10:06:30.940Z,93751.84
2023-05-04T10:09:35.811Z,93745.38
2023-05-04T10:12:38.862Z,93744.34
2023-05-04T10:16:25.096Z,93744.66
2023-05-04T10:19:45.501Z,93737.13
2023-05-04T10:23:37.351Z,93740.59
2023-05-04T10:27:16.212Z,93738.00
2023-05-04T10:30:19.658Z,93725.78
2023-05-04T10:33:23.774Z,93739.25
2023-05-04T10:36:37.613Z,93737.63
2023-05-04T10:39:40.682Z,93729.09
2023-05-04T10:42:44.831Z,93734.72
2023-05-04T10:45:48.125Z,93739.94
2023-05-04T10:48:52.488Z,93737.53
2023-05-04T10:52:18.498Z,93741.16
2023-05-04T10:55:23.143Z,93745.84
2023-05-04T10:58:30.764Z,93746.06
2023-05-04T11:01:44.256Z,93750.16
2023-05-04T11:04:48.474Z,93756.50
2023-05-04T11:07:53.736Z,93756.16
2023-05-04T11:11:05.574Z,93757.09
2023-05-04T11:14:08.967Z,93755.50
2023-05-04T11:20:22.339Z,93750.44
2023-05-04T11:23:25.805Z,93769.47
2023-05-04T11:26:30.117Z,93766.78
2023-05-04T11:29:34.002Z,93758.69
2023-05-04T11:32:44.647Z,93766.09
2023-05-04T11:35:48.458Z,93768.06
2023-05-04T11:38:52.138Z,93771.44
2023-05-04T11:41:55.198Z,93774.75
2023-05-04T11:45:01.737Z,93782.13
2023-05-04T11:48:05.971Z,93782.00
2023-05-04T11:51:10.237Z,93786.00
2023-05-04T11:54:22.271Z,93790.63
2023-05-04T11:57:26.366Z,93799.91
2023-05-04T12:00:40.677Z,93804.53
2023-05-04T12:03:52.047Z,93810.41
2023-05-04T12:07:00.221Z,93808.09
2023-05-04T12:10:05.484Z,93812.59
2023-05-04T12:13:18.289Z,93811.78
2023-05-04T12:16:22.786Z,93820.31
2023-05-04T12:19:26.587Z,93828.16
2023-05-04T12:22:30.992Z,93828.13
2023-05-04T12:25:34.536Z,93834.06
2023-05-04T12:28:42.841Z,93844.00
2023-05-04T12:31:46.697Z,93834.47
2023-05-04T12:34:50.332Z,93838.34
2023-05-04T12:37:54.161Z,93837.47
2023-05-04T12:40:59.924Z,93835.31
2023-05-04T12:44:03.412Z,93833.13
2023-05-04T12:47:07.719Z,93838.94
2023-05-04T12:50:11.200Z,93839.56
2023-05-04T12:53:14.375Z,93839.50
2023-05-04T12:56:17.509Z,93845.53
2023-05-04T12:59:22.829Z,93849.47
2023-05-04T13:02:26.823Z,93856.81
2023-05-04T13:05:30.717Z,93856.81
2023-05-04T13:08:34.062Z,93870.78
2023-05-04T13:11:37.189Z,93869.94
2023-05-04T13:14:41.213Z,93865.13
2023-05-04T13:17:44.587Z,93869.72
2023-05-04T13:20:48.560Z,93875.63
2023-05-04T13:23:53.080Z,93878.88
2023-05-04T13:26:56.833Z,93880.69
2023-05-04T13:30:04.588Z,93883.34
2023-05-04T13:33:20.625Z,93885.84
2023-05-04T13:36:25.467Z,93896.59
2023-05-04T13:39:29.496Z,93888.41
2023-05-04T13:42:36.872Z,93886.97
2023-05-04T13:45:41.047Z,93882.13
2023-05-04T13:48:45.235Z,93893.34
2023-05-04T13:51:48.988Z,93893.88
2023-05-04T13:54:54.531Z,93895.63
2023-05-04T13:57:58.095Z,93886.38
2023-05-04T14:01:01.617Z,93895.66
2023-05-04T14:04:04.834Z,93901.53
2023-05-04T14:07:10.148Z,93897.97
2023-05-04T14:10:13.799Z,93902.47
2023-05-04T14:13:18.013Z,93909.97
2023-05-04T14:16:46.451Z,93908.38
2023-05-04T14:19:49.659Z,93907.75
2023-05-04T14:22:52.768Z,93907.31
2023-05-04T14:25:57.866Z,93909.06
2023-05-04T14:29:01.000Z,93905.38
2023-05-04T14:32:04.908Z,93921.09
2023-05-04T14:35:10.337Z,93920.16
2023-05-04T14:38:14.476Z,93923.13
2023-05-04T14:41:19.215Z,93922.16
2023-05-04T14:44:23.499Z,93925.75
2023-05-04T14:47:27.984Z,93916.69
2023-05-04T14:50:32.008Z,93922.16
2023-05-04T14:53:37.277Z,93922.75
2023-05-04T14:56:43.436Z,93918.53
2023-05-04T14:59:47.371Z,93919.22
2023-05-04T15:02:51.572Z,93930.22
2023-05-04T15:05:55.350Z,93936.25
2023-05-04T15:08:58.583Z,93929.97
2023-05-04T15:12:01.549Z,93934.38
2023-05-04T15:15:05.304Z,93935.28
2023-05-04T15:18:09.095Z,93943.75
2023-05-04T15:21:12.973Z,93950.78
2023-05-04T15:24:16.627Z,93951.13
2023-05-04T15:27:19.602Z,93953.19
2023-05-04T15:30:23.951Z,93956.34
2023-05-04T15:33:27.568Z,93956.50
2023-05-04T15:36:33.922Z,93956.72
2023-05-04T15:39:37.760Z,93953.75
2023-05-04T15:42:40.661Z,93965.25
2023-05-04T15:45:43.831Z,93966.22
2023-05-04T15:48:46.712Z,93967.22
2023-05-04T15:51:50.581Z,93967.97
2023-05-04T15:54:53.418Z,93963.50
2023-05-04T15:57:57.209Z,93964.72
2023-05-04T16:01:04.397Z,93966.16
2023-05-04T16:04:08.350Z,93968.28
2023-05-04T16:07:11.679Z,93967.53
2023-05-04T16:10:14.937Z,93964.16
2023-05-04T16:13:18.540Z,93970.25
2023-05-04T16:16:22.370Z,93972.69
2023-05-04T16:19:26.400Z,93982.97
2023-05-04T16:22:30.019Z,93977.34
2023-05-04T16:25:33.784Z,93979.00
2023-05-04T16:28:37.897Z,93978.09
2023-05-04T16:31:41.010Z,93976.13
2023-05-04T16:34:44.423Z,93986.75
2023-05-04T16:37:48.105Z,93990.97
2023-05-04T16:40:51.852Z,93988.94
2023-05-04T16:43:55.540Z,93989.34
2023-05-04T16:47:00.414Z,93984.53
2023-05-04T16:50:03.996Z,93986.13
2023-05-04T16:53:07.328Z,93992.34
2023-05-04T16:56:17.950Z,93995.00
2023-05-04T16:59:22.041Z,93981.56
2023-05-04T17:02:26.355Z,93987.22
2023-05-04T17:05:30.399Z,93988.84
2023-05-04T17:08:35.490Z,94003.25
2023-05-04T17:11:39.330Z,94001.00
2023-05-04T17:14:42.546Z,94003.25
2023-05-04T17:17:47.043Z,93997.06
2023-05-04T17:20:50.659Z,94000.25
2023-05-04T17:23:53.670Z,93995.69
2023-05-04T17:26:56.829Z,93997.72
2023-05-04T17:29:59.962Z,94002.13
2023-05-04T17:33:03.465Z,93996.81
2023-05-04T17:36:08.155Z,94001.31
2023-05-04T17:39:11.129Z,93999.50
2023-05-04T17:42:16.466Z,94000.19
2023-05-04T17:45:20.267Z,94002.59
2023-05-04T17:48:24.525Z,93997.69
2023-05-04T17:51:28.279Z,94005.00
2023-05-04T17:54:31.327Z,93992.13
2023-05-04T17:57:34.525Z,94006.47
2023-05-04T18:00:37.690Z,94011.69
2023-05-04T18:03:42.357Z,94007.53
2023-05-04T18:06:46.156Z,94013.75
2023-05-04T18:09:49.463Z,94009.44
2023-05-04T18:12:53.329Z,94002.06
2023-05-04T18:15:56.890Z,94010.09
2023-05-04T18:18:59.912Z,94000.09
2023-05-04T18:22:03.209Z,93998.31
2023-05-04T18:25:06.814Z,94011.38
2023-05-04T18:28:10.521Z,94006.06
2023-05-04T18:31:14.393Z,94008.22
2023-05-04T18:34:17.682Z,94000.41
2023-05-04T18:37:23.526Z,94004.84
2023-05-04T18:40:26.761Z,94001.00
2023-05-04T18:43:30.558Z,94000.91
2023-05-04T18:46:33.519Z,94002.75
2023-05-04T18:49:36.606Z,93995.69
2023-05-04T18:52:40.351Z,93996.38
2023-05-04T18:55:43.438Z,94000.78
2023-05-04T18:58:47.503Z,93983.13
2023-05-04T19:01:50.497Z,93987.63
2023-05-04T19:04:54.436Z,93984.19
2023-05-04T19:07:57.351Z,93984.94
2023-05-04T19:11:00.687Z,93994.88
2023-05-04T19:14:03.696Z,94000.75
2023-05-04T19:17:07.456Z,93993.97
2023-05-04T19:20:11.468Z,93997.28
2023-05-04T19:23:14.924Z,93992.84
2023-05-04T19:26:18.364Z,93996.63
2023-05-04T19:29:21.926Z,93992.59
2023-05-04T19:32:25.786Z,93993.09
2023-05-04T19:35:29.853Z,93990.53
2023-05-04T19:38:33.606Z,93998.72
2023-05-04T19:41:37.649Z,94005.97
2023-05-04T19:44:41.642Z,94008.34
2023-05-04T19:47:46.268Z,94010.56
2023-05-04T19:50:50.298Z,94006.06
2023-05-04T19:53:54.143Z,94005.88
2023-05-04T19:56:57.858Z,94002.56
2023-05-04T20:00:02.963Z,93999.56
2023-05-04T20:03:14.492Z,94003.63
2023-05-04T20:06:18.868Z,93997.19
2023-05-04T20:09:22.885Z,93997.19
2023-05-04T20:12:27.507Z,94004.06
2023-05-04T20:15:31.353Z,94004.44
2023-05-04T20:18:35.174Z,94010.50
2023-05-04T20:21:38.866Z,93996.94
2023-05-04T20:24:43.240Z,94001.41
2023-05-04T20:27:48.989Z,93993.28
2023-05-04T20:30:53.178Z,93989.69
2023-05-04T20:33:56.197Z,93998.09
2023-05-04T20:37:00.148Z,93996.38
2023-05-04T20:40:04.483Z,94004.88
2023-05-04T20:43:09.063Z,94004.91
2023-05-04T20:46:13.092Z,94000.88
2023-05-04T20:49:16.673Z,93999.03
2023-05-04T20:52:20.016Z,94007.75
2023-05-04T20:55:23.346Z,94022.13
2023-05-04T20:58:27.091Z,94018.22
2023-05-04T21:01:31.254Z,94020.84
2023-05-04T21:04:35.026Z,94017.88
2023-05-04T21:07:39.132Z,94025.13
2023-05-04T21:10:42.860Z,94012.59
2023-05-04T21:13:46.733Z,94019.94
2023-05-04T21:16:50.313Z,94023.03
2023-05-04T21:19:54.473Z,94019.81
2023-05-04T21:22:58.571Z,94030.84
2023-05-04T21:26:05.842Z,94032.63
2023-05-04T21:29:15.993Z,94034.38
2023-05-04T21:32:19.671Z,94042.81
2023-05-04T21:35:22.643Z,94038.41
2023-05-04T21:38:26.679Z,94041.88
2023-05-04T21:41:30.402Z,94038.59
2023-05-04T21:44:34.279Z,94043.59
2023-05-04T21:47:38.082Z,94049.00
2023-05-04T21:50:41.834Z,94053.81
2023-05-04T21:53:45.611Z,94052.88
2023-05-04T21:56:49.630Z,94047.28
2023-05-04T21:59:53.301Z,94056.72
2023-05-04T22:02:57.069Z,94062.88
2023-05-04T22:06:01.064Z,94066.75
2023-05-04T22:09:06.001Z,94064.19
2023-05-04T22:12:09.686Z,94073.69
2023-05-04T22:15:14.884Z,94087.38
2023-05-04T22:18:18.881Z,94093.03
2023-05-04T22:21:22.735Z,94095.53
2023-05-04T22:24:27.338Z,94084.59
2023-05-04T22:27:31.449Z,94101.66
2023-05-04T22:30:35.160Z,94104.81
2023-05-04T22:33:39.330Z,94096.50
2023-05-04T22:36:43.129Z,94101.38
2023-05-04T22:39:46.513Z,94106.00
2023-05-04T22:42:50.247Z,94106.09
2023-05-04T22:45:54.115Z,94114.97
2023-05-04T22:48:58.102Z,94121.53
2023-05-04T22:52:01.829Z,94123.22
2023-05-04T22:55:06.364Z,94125.19
2023-05-04T22:58:10.406Z,94135.09
2023-05-04T23:01:14.136Z,94133.53
2023-05-04T23:04:17.868Z,94134.84
2023-05-04T23:07:21.663Z,94145.28
2023-05-04T23:10:25.538Z,94144.59
2023-05-04T23:13:29.176Z,94151.28
2023-05-04T23:16:33.074Z,94151.09
2023-05-04T23:19:37.124Z,94158.03
2023-05-04T23:22:40.763Z,94158.19
2023-05-04T23:25:44.378Z,94153.63
2023-05-04T23:28:48.284Z,94155.34
2023-05-04T23:31:51.708Z,94164.00
2023-05-04T23:34:55.689Z,94161.25
2023-05-04T23:37:58.995Z,94163.16
2023-05-04T23:41:06.165Z,94165.47
2023-05-04T23:44:09.685Z,94170.19
2023-05-04T23:47:13.134Z,94157.72
2023-05-04T23:50:16.898Z,94165.25
2023-05-04T23:53:20.934Z,94163.09
2023-05-04T23:56:24.497Z,94167.38
2023-05-04T23:59:28.436Z,94163.66
